createdAt,value
2023-05-14T00:01:42.338Z,101367.72
2023-05-14T00:04:17.849Z,101363.06
2023-05-14T00:06:50.496Z,101360.47
2023-05-14T00:09:20.773Z,101363.34
2023-05-14T00:11:52.938Z,101363.03
2023-05-14T00:14:35.716Z,101360.94
2023-05-14T00:17:08.228Z,101353.81
2023-05-14T00:19:59.857Z,101354.66
2023-05-14T00:22:38.234Z,101351.06
2023-05-14T00:25:09.460Z,101355.13
2023-05-14T00:27:39.410Z,101352.09
2023-05-14T00:30:15.848Z,101354.97
2023-05-14T00:32:46.102Z,101351.84
2023-05-14T00:35:25.102Z,101354.84
2023-05-14T00:37:55.468Z,101350.53
2023-05-14T00:40:29.855Z,101344.00
2023-05-14T00:43:08.817Z,101345.84
2023-05-14T00:45:44.976Z,101345.56
2023-05-14T00:48:22.190Z,101341.38
2023-05-14T00:50:52.577Z,101347.66
2023-05-14T00:53:22.745Z,101345.31
2023-05-14T00:55:52.980Z,101334.94
2023-05-14T00:58:25.780Z,101334.59
2023-05-14T01:00:55.703Z,101328.00
2023-05-14T01:03:25.737Z,101322.69
2023-05-14T01:06:27.299Z,101328.56
2023-05-14T01:09:27.861Z,101324.13
2023-05-14T01:12:02.223Z,101320.09
2023-05-14T01:14:54.188Z,101320.47
2023-05-14T01:17:31.134Z,101316.41
2023-05-14T01:20:01.752Z,101321.41
2023-05-14T01:22:51.522Z,101322.72
2023-05-14T01:25:24.139Z,101312.28
2023-05-14T01:28:14.503Z,101318.59
2023-05-14T01:30:50.241Z,101313.16
2023-05-14T01:33:21.011Z,101314.91
2023-05-14T01:35:51.972Z,101313.22
2023-05-14T01:38:27.374Z,101308.06
2023-05-14T01:41:01.012Z,101314.09
2023-05-14T01:43:36.679Z,101306.41
2023-05-14T01:46:06.292Z,101302.28
2023-05-14T01:48:45.649Z,101306.41
2023-05-14T01:51:45.904Z,101307.03
2023-05-14T01:54:15.404Z,101308.22
2023-05-14T01:56:48.302Z,101309.25
2023-05-14T01:59:21.573Z,101310.44
2023-05-14T02:02:11.131Z,101306.09
2023-05-14T02:04:54.768Z,101309.56
2023-05-14T02:07:35.851Z,101306.56
2023-05-14T02:10:26.239Z,101310.34
2023-05-14T02:13:17.138Z,101300.25
2023-05-14T02:16:02.556Z,101310.03
2023-05-14T02:18:50.493Z,101314.59
2023-05-14T02:22:00.042Z,101309.16
2023-05-14T02:24:30.908Z,101313.84
2023-05-14T02:27:03.817Z,101306.91
2023-05-14T02:29:33.463Z,101297.25
2023-05-14T02:32:03.320Z,101305.25
2023-05-14T02:34:35.476Z,101309.41
2023-05-14T02:37:05.855Z,101311.22
2023-05-14T02:39:38.365Z,101307.69
2023-05-14T02:42:12.496Z,101312.72
2023-05-14T02:44:44.892Z,101305.25
2023-05-14T02:47:15.986Z,101311.75
2023-05-14T02:49:48.542Z,101313.50
2023-05-14T02:52:24.658Z,101309.09
2023-05-14T02:55:04.255Z,101312.84
2023-05-14T02:57:35.335Z,101323.63
2023-05-14T03:00:11.440Z,101326.47
2023-05-14T03:02:42.311Z,101331.34
2023-05-14T03:05:18.718Z,101326.75
2023-05-14T03:07:57.415Z,101327.88
2023-05-14T03:10:27.071Z,101322.97
2023-05-14T03:12:57.092Z,101323.34
2023-05-14T03:15:26.984Z,101332.38
2023-05-14T03:17:59.016Z,101320.38
2023-05-14T03:20:28.367Z,101326.50
2023-05-14T03:22:57.495Z,101327.56
2023-05-14T03:25:26.569Z,101328.25
2023-05-14T03:27:55.669Z,101331.69
2023-05-14T03:30:25.111Z,101324.81
2023-05-14T03:32:54.673Z,101333.06
2023-05-14T03:35:23.636Z,101326.78
2023-05-14T03:37:53.862Z,101321.63
2023-05-14T03:40:23.081Z,101340.91
2023-05-14T03:42:53.190Z,101333.97
2023-05-14T03:45:22.571Z,101335.44
2023-05-14T03:47:51.625Z,101336.66
2023-05-14T03:50:21.398Z,101338.56
2023-05-14T03:52:50.440Z,101353.03
2023-05-14T03:55:22.508Z,101352.88
2023-05-14T03:57:51.550Z,101355.09
2023-05-14T04:00:20.757Z,101361.88
2023-05-14T04:02:49.917Z,101363.16
2023-05-14T04:05:19.116Z,101372.19
2023-05-14T04:07:48.061Z,101379.41
2023-05-14T04:10:17.051Z,101381.28
2023-05-14T04:12:46.175Z,101383.69
2023-05-14T04:15:15.153Z,101389.25
2023-05-14T04:17:45.159Z,101388.63
2023-05-14T04:20:14.758Z,101393.34
2023-05-14T04:22:43.720Z,101395.19
2023-05-14T04:25:12.723Z,101404.34
2023-05-14T04:27:41.845Z,101401.81
2023-05-14T04:30:11.527Z,101399.28
2023-05-14T04:32:43.492Z,101408.09
2023-05-14T04:35:13.676Z,101416.88
2023-05-14T04:37:42.685Z,101414.78
2023-05-14T04:40:17.582Z,101428.91
2023-05-14T04:42:46.927Z,101418.78
2023-05-14T04:45:16.221Z,101423.56
2023-05-14T04:47:46.014Z,101424.50
2023-05-14T04:50:16.069Z,101420.63
2023-05-14T04:52:45.173Z,101418.41
2023-05-14T04:55:14.146Z,101425.84
2023-05-14T04:57:43.325Z,101422.28
2023-05-14T05:00:13.156Z,101416.88
2023-05-14T05:02:42.331Z,101410.94
2023-05-14T05:05:11.693Z,101412.66
2023-05-14T05:07:40.756Z,101411.34
2023-05-14T05:10:23.161Z,101414.75
2023-05-14T05:12:52.698Z,101419.09
2023-05-14T05:15:26.606Z,101416.06
2023-05-14T05:17:56.485Z,101411.59
2023-05-14T05:20:29.202Z,101412.63
2023-05-14T05:22:58.348Z,101419.44
2023-05-14T05:25:32.529Z,101416.38
2023-05-14T05:28:03.970Z,101414.13
2023-05-14T05:34:27.540Z,101408.25
2023-05-14T05:37:23.528Z,101408.38
2023-05-14T05:40:04.157Z,101406.72
2023-05-14T05:43:23.353Z,101402.19
2023-05-14T05:45:54.393Z,101406.25
2023-05-14T05:48:51.893Z,101406.38
2023-05-14T05:52:05.729Z,101404.00
2023-05-14T05:55:13.202Z,101400.47
2023-05-14T06:01:28.048Z,101417.22
2023-05-14T06:03:57.715Z,101410.91
2023-05-14T06:06:28.852Z,101416.38
2023-05-14T06:08:59.894Z,101421.31
2023-05-14T06:11:29.854Z,101421.75
2023-05-14T06:13:58.802Z,101414.06
2023-05-14T06:16:27.918Z,101417.81
2023-05-14T06:18:57.479Z,101415.34
2023-05-14T06:21:26.739Z,101427.53
2023-05-14T06:23:56.004Z,101414.31
2023-05-14T06:26:24.926Z,101419.25
2023-05-14T06:28:54.072Z,101420.53
2023-05-14T06:31:22.991Z,101412.81
2023-05-14T06:33:52.091Z,101415.25
2023-05-14T06:36:24.125Z,101418.75
2023-05-14T06:38:53.848Z,101402.00
2023-05-14T06:41:23.481Z,101413.84
2023-05-14T06:43:52.578Z,101413.75
2023-05-14T06:46:21.616Z,101414.22
2023-05-14T06:48:53.373Z,101419.34
2023-05-14T06:51:22.571Z,101410.84
2023-05-14T06:53:54.684Z,101410.84
2023-05-14T06:56:24.075Z,101419.84
2023-05-14T06:58:54.184Z,101413.66
2023-05-14T07:01:29.599Z,101404.28
2023-05-14T07:03:58.830Z,101409.63
2023-05-14T07:06:35.800Z,101410.19
2023-05-14T07:09:16.542Z,101405.34
2023-05-14T07:11:46.464Z,101415.19
2023-05-14T07:14:18.197Z,101402.56
2023-05-14T07:16:47.915Z,101406.50
2023-05-14T07:19:17.449Z,101404.91
2023-05-14T07:21:46.482Z,101401.81
2023-05-14T07:24:15.490Z,101401.53
2023-05-14T07:26:44.929Z,101394.75
2023-05-14T07:29:14.009Z,101407.50
2023-05-14T07:31:43.141Z,101414.25
2023-05-14T07:34:13.524Z,101400.38
2023-05-14T07:36:43.665Z,101405.69
2023-05-14T07:39:12.655Z,101403.06
2023-05-14T07:41:41.670Z,101400.84
2023-05-14T07:44:10.812Z,101413.78
2023-05-14T07:46:39.882Z,101400.63
2023-05-14T07:49:08.999Z,101403.53
2023-05-14T07:51:37.995Z,101407.75
2023-05-14T07:54:11.686Z,101408.69
2023-05-14T07:56:40.832Z,101399.75
2023-05-14T07:59:09.821Z,101401.72
2023-05-14T08:01:39.507Z,101406.50
2023-05-14T08:04:08.977Z,101407.22
2023-05-14T08:06:38.000Z,101387.63
2023-05-14T08:09:07.636Z,101391.91
2023-05-14T08:11:36.783Z,101386.28
2023-05-14T08:14:05.600Z,101389.22
2023-05-14T08:16:34.718Z,101392.97
2023-05-14T08:19:03.953Z,101394.88
2023-05-14T08:21:33.594Z,101391.53
2023-05-14T08:24:02.720Z,101392.88
2023-05-14T08:26:32.364Z,101377.09
2023-05-14T08:29:01.354Z,101380.25
2023-05-14T08:31:30.384Z,101381.78
2023-05-14T08:33:59.383Z,101375.00
2023-05-14T08:36:28.414Z,101379.63
2023-05-14T08:38:57.349Z,101382.06
2023-05-14T08:41:26.656Z,101376.59
2023-05-14T08:44:08.944Z,101372.66
2023-05-14T08:46:39.460Z,101370.16
2023-05-14T08:49:31.506Z,101371.75
2023-05-14T08:52:01.644Z,101367.16
2023-05-14T08:54:33.355Z,101375.22
2023-05-14T08:57:02.653Z,101367.78
2023-05-14T08:59:31.687Z,101380.28
2023-05-14T09:02:05.228Z,101364.69
2023-05-14T09:04:37.847Z,101360.66
2023-05-14T09:07:08.669Z,101356.22
2023-05-14T09:09:38.666Z,101361.03
2023-05-14T09:12:08.061Z,101356.88
2023-05-14T09:14:37.818Z,101362.81
2023-05-14T09:17:07.109Z,101354.78
2023-05-14T09:19:36.141Z,101353.94
2023-05-14T09:22:11.164Z,101356.00
2023-05-14T09:24:40.669Z,101359.47
2023-05-14T09:27:11.125Z,101352.91
2023-05-14T09:29:40.083Z,101349.56
2023-05-14T09:32:11.111Z,101352.91
2023-05-14T09:34:41.406Z,101344.88
2023-05-14T09:37:11.315Z,101344.25
2023-05-14T09:39:40.351Z,101346.78
2023-05-14T09:42:09.481Z,101338.28
2023-05-14T09:44:38.955Z,101348.69
2023-05-14T09:47:08.017Z,101337.78
2023-05-14T09:49:36.940Z,101355.09
2023-05-14T09:52:07.978Z,101335.91
2023-05-14T09:54:38.889Z,101331.91
2023-05-14T09:57:07.864Z,101321.81
2023-05-14T09:59:36.940Z,101339.38
2023-05-14T10:02:12.748Z,101334.75
2023-05-14T10:04:42.046Z,101341.06
2023-05-14T10:07:12.456Z,101339.25
2023-05-14T10:09:44.229Z,101336.69
2023-05-14T10:12:15.839Z,101332.94
2023-05-14T10:14:54.100Z,101335.44
2023-05-14T10:17:24.183Z,101341.53
2023-05-14T10:19:58.164Z,101338.75
2023-05-14T10:22:33.032Z,101326.31
2023-05-14T10:25:03.745Z,101332.34
2023-05-14T10:27:33.237Z,101328.44
2023-05-14T10:30:06.779Z,101332.88
2023-05-14T10:32:38.834Z,101331.56
2023-05-14T10:35:23.513Z,101341.25
2023-05-14T10:37:53.029Z,101328.88
2023-05-14T10:40:25.813Z,101336.41
2023-05-14T10:43:00.183Z,101346.41
2023-05-14T10:45:29.246Z,101333.28
2023-05-14T10:47:58.293Z,101331.72
2023-05-14T10:50:28.013Z,101330.31
2023-05-14T10:52:58.002Z,101333.34
2023-05-14T10:55:27.140Z,101340.47
2023-05-14T10:57:59.912Z,101346.06
2023-05-14T11:00:28.985Z,101327.56
2023-05-14T11:02:58.399Z,101337.09
2023-05-14T11:05:28.611Z,101337.72
2023-05-14T11:07:59.587Z,101324.66
2023-05-14T11:10:30.938Z,101333.44
2023-05-14T11:13:00.493Z,101323.84
2023-05-14T11:15:29.936Z,101320.66
2023-05-14T11:17:59.004Z,101315.06
2023-05-14T11:20:27.960Z,101313.09
2023-05-14T11:22:57.291Z,101323.81
2023-05-14T11:25:26.834Z,101328.59
2023-05-14T11:27:59.069Z,101328.66
2023-05-14T11:30:28.435Z,101331.03
2023-05-14T11:32:58.754Z,101324.59
2023-05-14T11:35:29.129Z,101326.91
2023-05-14T11:37:58.062Z,101319.69
2023-05-14T11:40:27.033Z,101322.19
2023-05-14T11:42:56.121Z,101324.59
2023-05-14T11:45:30.589Z,101318.13
2023-05-14T11:47:59.710Z,101326.97
2023-05-14T11:50:28.910Z,101317.41
2023-05-14T11:52:58.552Z,101317.47
2023-05-14T11:55:27.619Z,101299.16
2023-05-14T11:57:56.916Z,101313.47
2023-05-14T12:00:27.876Z,101320.28
2023-05-14T12:02:57.104Z,101314.25
2023-05-14T12:05:26.671Z,101307.53
2023-05-14T12:07:56.947Z,101312.72
2023-05-14T12:10:26.519Z,101316.72
2023-05-14T12:12:56.474Z,101312.72
2023-05-14T12:15:27.578Z,101291.97
2023-05-14T12:17:56.670Z,101317.91
2023-05-14T12:20:26.995Z,101315.47
2023-05-14T12:22:56.073Z,101308.72
2023-05-14T12:25:27.043Z,101325.47
2023-05-14T12:27:56.034Z,101311.91
2023-05-14T12:30:24.910Z,101305.50
2023-05-14T12:32:54.566Z,101307.53
2023-05-14T12:35:23.860Z,101302.34
2023-05-14T12:37:53.032Z,101308.72
2023-05-14T12:40:22.098Z,101307.09
2023-05-14T12:42:51.389Z,101312.69
2023-05-14T12:45:20.330Z,101305.53
2023-05-14T12:47:49.262Z,101309.50
2023-05-14T12:50:18.293Z,101304.72
2023-05-14T12:52:47.512Z,101292.78
2023-05-14T12:55:16.389Z,101291.97
2023-05-14T12:57:45.351Z,101308.31
2023-05-14T13:00:15.245Z,101309.94
2023-05-14T13:02:44.494Z,101313.50
2023-05-14T13:05:14.012Z,101307.13
2023-05-14T13:07:43.407Z,101304.75
2023-05-14T13:10:12.660Z,101310.31
2023-05-14T13:12:41.743Z,101304.72
2023-05-14T13:15:11.569Z,101303.53
2023-05-14T13:17:42.268Z,101305.50
2023-05-14T13:20:11.815Z,101302.75
2023-05-14T13:22:41.129Z,101300.34
2023-05-14T13:25:10.630Z,101308.72
2023-05-14T13:27:41.854Z,101308.72
2023-05-14T13:30:11.314Z,101300.72
2023-05-14T13:32:42.180Z,101302.31
2023-05-14T13:35:11.545Z,101301.97
2023-05-14T13:37:40.623Z,101307.94
2023-05-14T13:40:10.436Z,101304.31
2023-05-14T13:42:40.716Z,101311.91
2023-05-14T13:45:10.809Z,101307.13
2023-05-14T13:47:40.446Z,101307.13
2023-05-14T13:50:09.990Z,101307.94
2023-05-14T13:52:39.971Z,101310.31
2023-05-14T13:55:09.462Z,101310.31
2023-05-14T13:57:40.261Z,101305.53
2023-05-14T14:00:10.348Z,101295.16
2023-05-14T14:02:39.304Z,101291.16
2023-05-14T14:05:08.707Z,101296.75
2023-05-14T14:07:37.658Z,101295.13
2023-05-14T14:10:07.175Z,101287.88
2023-05-14T14:12:36.292Z,101302.31
2023-05-14T14:15:06.556Z,101297.53
2023-05-14T14:17:35.636Z,101291.19
2023-05-14T14:20:06.744Z,101291.56
2023-05-14T14:22:36.197Z,101293.56
2023-05-14T14:25:05.653Z,101296.34
2023-05-14T14:27:36.941Z,101301.13
2023-05-14T14:30:16.321Z,101294.34
2023-05-14T14:32:49.870Z,101295.16
2023-05-14T14:35:20.628Z,101299.84
2023-05-14T14:37:51.467Z,101305.38
2023-05-14T14:40:21.030Z,101295.09
2023-05-14T14:42:50.135Z,101299.00
2023-05-14T14:45:19.283Z,101309.34
2023-05-14T14:47:50.098Z,101304.13
2023-05-14T14:50:19.588Z,101314.88
2023-05-14T14:52:54.727Z,101317.41
2023-05-14T14:59:43.443Z,101306.69
2023-05-14T15:02:27.014Z,101307.44
2023-05-14T15:05:01.919Z,101298.72
2023-05-14T15:07:35.893Z,101306.78
2023-05-14T15:10:08.649Z,101303.63
2023-05-14T15:12:37.923Z,101299.56
2023-05-14T15:15:07.752Z,101297.72
2023-05-14T15:17:36.878Z,101293.22
2023-05-14T15:20:08.124Z,101302.41
2023-05-14T15:22:37.081Z,101308.22
2023-05-14T15:25:06.731Z,101306.78
2023-05-14T15:27:36.226Z,101304.41
2023-05-14T15:30:05.682Z,101306.06
2023-05-14T15:32:35.301Z,101309.28
2023-05-14T15:35:04.508Z,101314.69
2023-05-14T15:37:44.485Z,101299.22
2023-05-14T15:40:14.174Z,101303.53
2023-05-14T15:42:44.649Z,101302.81
2023-05-14T15:45:14.628Z,101298.81
2023-05-14T15:47:44.993Z,101286.88
2023-05-14T15:50:14.030Z,101278.44
2023-05-14T15:52:43.978Z,101284.53
2023-05-14T15:55:13.064Z,101298.00
2023-05-14T15:57:42.091Z,101292.41
2023-05-14T16:00:11.880Z,101287.91
2023-05-14T16:02:41.011Z,101283.00
2023-05-14T16:05:10.424Z,101280.66
2023-05-14T16:07:39.709Z,101284.34
2023-05-14T16:10:09.161Z,101285.75
2023-05-14T16:12:39.157Z,101281.44
2023-05-14T16:15:09.021Z,101281.13
2023-05-14T16:17:39.043Z,101283.28
2023-05-14T16:20:08.845Z,101273.78
2023-05-14T16:22:37.744Z,101268.28
2023-05-14T16:25:07.528Z,101266.34
2023-05-14T16:27:36.806Z,101258.47
2023-05-14T16:30:06.097Z,101260.28
2023-05-14T16:32:35.560Z,101247.31
2023-05-14T16:35:04.666Z,101245.34
2023-05-14T16:37:34.356Z,101235.59
2023-05-14T16:40:03.736Z,101242.50
2023-05-14T16:42:32.743Z,101235.03
2023-05-14T16:45:01.728Z,101247.41
2023-05-14T16:47:32.940Z,101239.72
2023-05-14T16:50:01.982Z,101235.41
2023-05-14T16:52:31.680Z,101226.25
2023-05-14T16:55:00.868Z,101221.16
2023-05-14T16:57:30.603Z,101219.22
2023-05-14T16:59:59.795Z,101217.28
2023-05-14T17:02:29.591Z,101213.50
2023-05-14T17:04:59.020Z,101218.63
2023-05-14T17:07:28.355Z,101211.72
2023-05-14T17:09:58.866Z,101212.16
2023-05-14T17:12:27.991Z,101216.06
2023-05-14T17:14:56.864Z,101203.00
2023-05-14T17:17:37.009Z,101201.19
2023-05-14T17:20:07.047Z,101201.72
2023-05-14T17:22:36.276Z,101211.63
2023-05-14T17:25:08.203Z,101191.00
2023-05-14T17:27:37.584Z,101195.75
2023-05-14T17:30:10.011Z,101197.22
2023-05-14T17:32:39.309Z,101197.22
2023-05-14T17:35:10.441Z,101197.50
2023-05-14T17:37:41.666Z,101196.72
2023-05-14T17:40:11.536Z,101191.22
2023-05-14T17:42:40.636Z,101192.25
2023-05-14T17:45:14.054Z,101180.06
2023-05-14T17:47:43.133Z,101173.25
2023-05-14T17:50:12.255Z,101176.38
2023-05-14T17:52:44.916Z,101171.97
2023-05-14T17:55:13.986Z,101164.06
2023-05-14T17:57:42.998Z,101162.03
2023-05-14T18:00:12.914Z,101162.84
2023-05-14T18:02:42.346Z,101157.09
2023-05-14T18:05:11.495Z,101157.06
2023-05-14T18:07:40.692Z,101152.00
2023-05-14T18:10:10.230Z,101147.28
2023-05-14T18:12:39.263Z,101150.16
2023-05-14T18:15:09.130Z,101147.69
2023-05-14T18:17:38.305Z,101143.25
2023-05-14T18:20:08.453Z,101146.00
2023-05-14T18:22:37.436Z,101150.47
2023-05-14T18:25:07.906Z,101141.00
2023-05-14T18:27:40.332Z,101143.69
2023-05-14T18:30:10.564Z,101139.22
2023-05-14T18:32:41.406Z,101129.19
2023-05-14T18:35:11.595Z,101128.81
2023-05-14T18:37:41.012Z,101134.94
2023-05-14T18:40:11.193Z,101131.41
2023-05-14T18:42:40.631Z,101122.16
2023-05-14T18:45:17.445Z,101123.72
2023-05-14T18:48:02.025Z,101115.44
2023-05-14T18:51:14.183Z,101116.19
2023-05-14T18:53:43.576Z,101111.69
2023-05-14T18:56:12.513Z,101105.25
2023-05-14T18:58:46.079Z,101106.75
2023-05-14T19:01:16.741Z,101097.97
2023-05-14T19:04:47.892Z,101088.13
2023-05-14T19:06:59.351Z,101086.75
2023-05-14T19:09:29.580Z,101087.34
2023-05-14T19:12:06.337Z,101078.25
2023-05-14T19:14:56.043Z,101068.63
2023-05-14T19:17:26.987Z,101053.25
2023-05-14T19:19:56.956Z,101050.78
2023-05-14T19:22:30.735Z,101046.25
2023-05-14T19:25:07.788Z,101045.56
2023-05-14T19:27:58.941Z,101038.16
2023-05-14T19:30:29.266Z,101035.72
2023-05-14T19:33:00.187Z,101031.53
2023-05-14T19:35:29.881Z,101040.56
2023-05-14T19:38:01.557Z,101040.16
2023-05-14T19:40:40.902Z,101046.16
2023-05-14T19:43:12.514Z,101049.97
2023-05-14T19:45:46.596Z,101050.00
2023-05-14T19:49:29.316Z,101049.16
2023-05-14T19:52:07.673Z,101027.09
2023-05-14T19:54:36.992Z,101028.38
2023-05-14T19:57:15.596Z,101021.13
2023-05-14T19:59:48.094Z,101027.09
2023-05-14T20:02:19.153Z,101020.09
2023-05-14T20:05:13.200Z,101012.78
2023-05-14T20:08:29.920Z,101008.56
2023-05-14T20:11:14.757Z,101006.75
2023-05-14T20:14:56.799Z,101005.16
2023-05-14T20:17:55.547Z,101003.38
2023-05-14T20:20:31.131Z,100995.06
2023-05-14T20:23:11.435Z,100993.63
2023-05-14T20:25:53.964Z,100996.56
2023-05-14T20:28:26.295Z,100993.16
2023-05-14T20:34:56.527Z,100990.41
2023-05-14T20:38:28.732Z,100989.13
2023-05-14T20:41:20.559Z,100985.84
2023-05-14T20:44:28.258Z,100976.78
2023-05-14T20:50:56.317Z,100989.22
2023-05-14T20:53:38.252Z,100981.91
2023-05-14T20:56:20.681Z,100981.56
2023-05-14T20:59:47.746Z,100982.97
2023-05-14T21:03:08.892Z,100969.38
2023-05-14T21:05:44.529Z,100967.56
2023-05-14T21:08:21.246Z,100962.06
2023-05-14T21:11:03.957Z,100966.09
2023-05-14T21:13:41.002Z,100954.06
2023-05-14T21:16:44.254Z,100958.63
2023-05-14T21:19:09.022Z,100962.28
2023-05-14T21:21:41.492Z,100957.91
2023-05-14T21:24:52.580Z,100951.09
2023-05-14T21:27:33.123Z,100951.03
2023-05-14T21:30:59.883Z,100951.97
2023-05-14T21:33:42.472Z,100946.44
2023-05-14T21:36:15.013Z,100952.91
2023-05-14T21:38:51.332Z,100939.91
2023-05-14T21:41:34.583Z,100942.81
2023-05-14T21:44:08.992Z,100934.78
2023-05-14T21:46:53.929Z,100933.38
2023-05-14T21:49:37.720Z,100930.63
2023-05-14T21:52:30.725Z,100930.66
2023-05-14T21:55:09.718Z,100929.84
2023-05-14T21:58:21.950Z,100927.84
2023-05-14T22:00:38.592Z,100922.75
2023-05-14T22:03:38.962Z,100925.97
2023-05-14T22:06:41.095Z,100912.63
2023-05-14T22:09:13.579Z,100905.56
2023-05-14T22:12:22.427Z,100896.72
2023-05-14T22:14:55.649Z,100893.09
2023-05-14T22:17:31.676Z,100900.59
2023-05-14T22:20:08.383Z,100894.59
2023-05-14T22:22:43.194Z,100894.91
2023-05-14T22:25:15.718Z,100891.94
2023-05-14T22:27:51.884Z,100891.28
2023-05-14T22:30:24.647Z,100883.53
2023-05-14T22:32:59.238Z,100880.34
2023-05-14T22:35:32.016Z,100872.16
2023-05-14T22:38:20.751Z,100874.34
2023-05-14T22:42:15.857Z,100874.81
2023-05-14T22:44:58.918Z,100863.03
2023-05-14T22:50:59.016Z,100863.28
2023-05-14T22:53:39.266Z,100868.84
2023-05-14T22:56:55.251Z,100849.75
2023-05-14T22:59:26.660Z,100853.97
2023-05-14T23:06:07.638Z,100847.09
2023-05-14T23:09:05.169Z,100836.00
2023-05-14T23:11:59.177Z,100843.22
2023-05-14T23:14:45.565Z,100843.97
2023-05-14T23:17:47.925Z,100833.06
2023-05-14T23:20:45.156Z,100829.53
2023-05-14T23:23:47.266Z,100813.38
2023-05-14T23:26:31.006Z,100823.72
2023-05-14T23:29:14.700Z,100822.59
2023-05-14T23:31:45.153Z,100830.69
2023-05-14T23:34:19.543Z,100828.84
2023-05-14T23:37:01.173Z,100831.75
2023-05-14T23:39:32.094Z,100827.41
2023-05-14T23:42:07.677Z,100819.47
2023-05-14T23:44:46.683Z,100825.38
2023-05-14T23:57:45.559Z,100820.88
